sensor_id;sensor_type;location;lat;lon;timestamp;temperature;humidity
5962;DHT22;3007;50.770;0.250;2023-12-29T00:01:29;10.90;99.90
5962;DHT22;3007;50.770;0.250;2023-12-29T00:03:56;10.90;99.90
5962;DHT22;3007;50.770;0.250;2023-12-29T00:06:23;10.80;99.90
5962;DHT22;3007;50.770;0.250;2023-12-29T00:08:50;10.80;99.90
5962;DHT22;3007;50.770;0.250;2023-12-29T00:11:17;10.70;99.90
5962;DHT22;3007;50.770;0.250;2023-12-29T00:13:45;10.70;99.90
5962;DHT22;3007;50.770;0.250;2023-12-29T00:16:12;10.70;99.90
5962;DHT22;3007;50.770;0.250;2023-12-29T00:18:39;10.70;99.90
5962;DHT22;3007;50.770;0.250;2023-12-29T00:21:06;10.60;99.90
5962;DHT22;3007;50.770;0.250;2023-12-29T00:23:33;10.60;99.90
5962;DHT22;3007;50.770;0.250;2023-12-29T00:26:00;10.60;99.90
5962;DHT22;3007;50.770;0.250;2023-12-29T00:28:26;10.60;99.90
5962;DHT22;3007;50.770;0.250;2023-12-29T00:30:54;10.50;99.90
5962;DHT22;3007;50.770;0.250;2023-12-29T00:33:21;10.50;99.90
5962;DHT22;3007;50.770;0.250;2023-12-29T00:35:48;10.50;99.90
5962;DHT22;3007;50.770;0.250;2023-12-29T00:38:15;10.50;99.90
5962;DHT22;3007;50.770;0.250;2023-12-29T00:40:42;10.40;99.90
5962;DHT22;3007;50.770;0.250;2023-12-29T00:43:09;10.40;99.90
5962;DHT22;3007;50.770;0.250;2023-12-29T00:45:36;10.40;99.90
5962;DHT22;3007;50.770;0.250;2023-12-29T00:48:05;10.30;99.90
5962;DHT22;3007;50.770;0.250;2023-12-29T00:50:31;10.30;99.90
5962;DHT22;3007;50.770;0.250;2023-12-29T00:52:58;10.20;99.90
5962;DHT22;3007;50.770;0.250;2023-12-29T00:55:25;10.20;99.90
5962;DHT22;3007;50.770;0.250;2023-12-29T00:57:52;10.20;99.90
5962;DHT22;3007;50.770;0.250;2023-12-29T01:00:19;10.10;99.90
5962;DHT22;3007;50.770;0.250;2023-12-29T01:02:46;10.20;99.90
5962;DHT22;3007;50.770;0.250;2023-12-29T01:05:16;10.20;99.90
5962;DHT22;3007;50.770;0.250;2023-12-29T01:07:43;10.20;99.90
5962;DHT22;3007;50.770;0.250;2023-12-29T01:10:10;10.20;99.90
5962;DHT22;3007;50.770;0.250;2023-12-29T01:12:37;10.20;99.90
5962;DHT22;3007;50.770;0.250;2023-12-29T01:15:04;10.20;99.90
5962;DHT22;3007;50.770;0.250;2023-12-29T01:17:31;10.20;99.90
5962;DHT22;3007;50.770;0.250;2023-12-29T01:19:58;10.30;99.90
5962;DHT22;3007;50.770;0.250;2023-12-29T01:22:26;10.30;99.90
5962;DHT22;3007;50.770;0.250;2023-12-29T01:24:53;10.30;99.90
5962;DHT22;3007;50.770;0.250;2023-12-29T01:27:20;10.30;99.90
5962;DHT22;3007;50.770;0.250;2023-12-29T01:29:47;10.20;99.90
5962;DHT22;3007;50.770;0.250;2023-12-29T01:32:14;10.30;99.90
5962;DHT22;3007;50.770;0.250;2023-12-29T01:34:41;10.40;99.90
5962;DHT22;3007;50.770;0.250;2023-12-29T01:37:07;10.40;99.90
5962;DHT22;3007;50.770;0.250;2023-12-29T01:39:36;10.50;99.90
5962;DHT22;3007;50.770;0.250;2023-12-29T01:42:03;10.70;99.90
5962;DHT22;3007;50.770;0.250;2023-12-29T01:44:30;10.60;99.90
5962;DHT22;3007;50.770;0.250;2023-12-29T01:46:59;10.60;99.90
5962;DHT22;3007;50.770;0.250;2023-12-29T01:49:27;10.70;99.90
5962;DHT22;3007;50.770;0.250;2023-12-29T01:51:55;10.70;99.90
5962;DHT22;3007;50.770;0.250;2023-12-29T01:54:25;10.80;99.90
5962;DHT22;3007;50.770;0.250;2023-12-29T01:56:56;10.80;99.90
5962;DHT22;3007;50.770;0.250;2023-12-29T01:59:25;10.80;99.90
5962;DHT22;3007;50.770;0.250;2023-12-29T02:01:53;10.80;99.90
5962;DHT22;3007;50.770;0.250;2023-12-29T02:04:22;10.80;99.90
5962;DHT22;3007;50.770;0.250;2023-12-29T02:06:50;10.80;99.90
5962;DHT22;3007;50.770;0.250;2023-12-29T02:09:17;10.90;99.90
5962;DHT22;3007;50.770;0.250;2023-12-29T02:11:44;10.90;99.90
5962;DHT22;3007;50.770;0.250;2023-12-29T02:14:13;11.00;99.90
5962;DHT22;3007;50.770;0.250;2023-12-29T02:16:45;11.00;99.90
5962;DHT22;3007;50.770;0.250;2023-12-29T02:19:33;11.00;99.90
5962;DHT22;3007;50.770;0.250;2023-12-29T02:22:03;11.00;99.90
5962;DHT22;3007;50.770;0.250;2023-12-29T02:24:30;11.00;99.90
5962;DHT22;3007;50.770;0.250;2023-12-29T02:27:07;11.10;99.90
5962;DHT22;3007;50.770;0.250;2023-12-29T02:29:35;11.10;99.90
5962;DHT22;3007;50.770;0.250;2023-12-29T02:32:06;11.10;99.90
5962;DHT22;3007;50.770;0.250;2023-12-29T02:34:34;11.10;99.90
5962;DHT22;3007;50.770;0.250;2023-12-29T02:37:02;11.10;99.90
5962;DHT22;3007;50.770;0.250;2023-12-29T02:39:29;11.10;99.90
5962;DHT22;3007;50.770;0.250;2023-12-29T02:41:58;11.10;99.90
5962;DHT22;3007;50.770;0.250;2023-12-29T02:44:25;11.10;99.90
5962;DHT22;3007;50.770;0.250;2023-12-29T02:46:51;11.10;99.90
5962;DHT22;3007;50.770;0.250;2023-12-29T02:49:20;11.20;99.90
5962;DHT22;3007;50.770;0.250;2023-12-29T02:51:47;11.10;99.90
5962;DHT22;3007;50.770;0.250;2023-12-29T02:54:15;11.10;99.90
5962;DHT22;3007;50.770;0.250;2023-12-29T02:56:42;11.10;99.90
5962;DHT22;3007;50.770;0.250;2023-12-29T02:59:10;11.10;99.90
5962;DHT22;3007;50.770;0.250;2023-12-29T03:01:37;11.10;99.90
5962;DHT22;3007;50.770;0.250;2023-12-29T03:04:04;11.10;99.90
5962;DHT22;3007;50.770;0.250;2023-12-29T03:06:31;11.10;99.90
5962;DHT22;3007;50.770;0.250;2023-12-29T03:08:57;11.00;99.90
5962;DHT22;3007;50.770;0.250;2023-12-29T03:11:24;11.00;99.90
5962;DHT22;3007;50.770;0.250;2023-12-29T03:13:51;11.10;99.90
5962;DHT22;3007;50.770;0.250;2023-12-29T03:16:19;11.10;99.90
5962;DHT22;3007;50.770;0.250;2023-12-29T03:18:46;11.10;99.90
5962;DHT22;3007;50.770;0.250;2023-12-29T03:21:13;11.10;99.90
5962;DHT22;3007;50.770;0.250;2023-12-29T03:23:40;11.10;99.90
5962;DHT22;3007;50.770;0.250;2023-12-29T03:26:06;11.10;99.90
5962;DHT22;3007;50.770;0.250;2023-12-29T03:28:33;11.10;99.90
5962;DHT22;3007;50.770;0.250;2023-12-29T03:31:00;11.10;99.90
5962;DHT22;3007;50.770;0.250;2023-12-29T03:33:28;11.10;99.90
5962;DHT22;3007;50.770;0.250;2023-12-29T03:35:55;11.10;99.90
5962;DHT22;3007;50.770;0.250;2023-12-29T03:38:22;11.10;99.90
5962;DHT22;3007;50.770;0.250;2023-12-29T03:40:49;11.10;99.90
5962;DHT22;3007;50.770;0.250;2023-12-29T03:43:15;11.00;99.90
5962;DHT22;3007;50.770;0.250;2023-12-29T03:45:42;11.00;99.90
5962;DHT22;3007;50.770;0.250;2023-12-29T03:48:09;11.00;99.90
5962;DHT22;3007;50.770;0.250;2023-12-29T03:50:37;11.00;99.90
5962;DHT22;3007;50.770;0.250;2023-12-29T03:53:04;11.00;99.90
5962;DHT22;3007;50.770;0.250;2023-12-29T03:55:31;11.00;99.90
5962;DHT22;3007;50.770;0.250;2023-12-29T03:57:58;11.00;99.90
5962;DHT22;3007;50.770;0.250;2023-12-29T04:00:26;11.10;99.90
5962;DHT22;3007;50.770;0.250;2023-12-29T04:02:52;11.00;99.90
5962;DHT22;3007;50.770;0.250;2023-12-29T04:05:19;11.10;99.90
5962;DHT22;3007;50.770;0.250;2023-12-29T04:07:47;11.10;99.90
5962;DHT22;3007;50.770;0.250;2023-12-29T04:10:14;11.10;99.90
5962;DHT22;3007;50.770;0.250;2023-12-29T04:12:41;11.10;99.90
5962;DHT22;3007;50.770;0.250;2023-12-29T04:15:09;11.10;99.90
5962;DHT22;3007;50.770;0.250;2023-12-29T04:17:36;11.10;99.90
5962;DHT22;3007;50.770;0.250;2023-12-29T04:20:03;11.10;99.90
5962;DHT22;3007;50.770;0.250;2023-12-29T04:22:30;11.10;99.90
5962;DHT22;3007;50.770;0.250;2023-12-29T04:24:58;11.10;99.90
5962;DHT22;3007;50.770;0.250;2023-12-29T04:27:25;11.20;99.90
5962;DHT22;3007;50.770;0.250;2023-12-29T04:29:51;11.20;99.90
5962;DHT22;3007;50.770;0.250;2023-12-29T04:32:18;11.20;99.90
5962;DHT22;3007;50.770;0.250;2023-12-29T04:34:45;11.30;99.90
5962;DHT22;3007;50.770;0.250;2023-12-29T04:37:12;11.30;99.90
5962;DHT22;3007;50.770;0.250;2023-12-29T04:39:39;11.30;99.90
5962;DHT22;3007;50.770;0.250;2023-12-29T04:42:07;11.40;99.90
5962;DHT22;3007;50.770;0.250;2023-12-29T04:44:34;11.30;99.90
5962;DHT22;3007;50.770;0.250;2023-12-29T04:47:01;11.30;99.90
5962;DHT22;3007;50.770;0.250;2023-12-29T04:49:28;11.40;99.90
5962;DHT22;3007;50.770;0.250;2023-12-29T04:51:55;11.30;99.90
5962;DHT22;3007;50.770;0.250;2023-12-29T04:54:23;11.30;99.90
5962;DHT22;3007;50.770;0.250;2023-12-29T04:56:50;11.30;99.90
5962;DHT22;3007;50.770;0.250;2023-12-29T04:59:18;11.30;99.90
5962;DHT22;3007;50.770;0.250;2023-12-29T05:01:45;11.20;99.90
5962;DHT22;3007;50.770;0.250;2023-12-29T05:04:12;11.20;99.90
5962;DHT22;3007;50.770;0.250;2023-12-29T05:06:40;12.30;99.90
5962;DHT22;3007;50.770;0.250;2023-12-29T05:09:07;11.20;99.90
5962;DHT22;3007;50.770;0.250;2023-12-29T05:11:33;11.10;99.90
5962;DHT22;3007;50.770;0.250;2023-12-29T05:14:00;11.00;99.90
5962;DHT22;3007;50.770;0.250;2023-12-29T05:16:28;11.00;99.90
5962;DHT22;3007;50.770;0.250;2023-12-29T05:18:55;11.00;99.90
5962;DHT22;3007;50.770;0.250;2023-12-29T05:21:22;10.90;99.90
5962;DHT22;3007;50.770;0.250;2023-12-29T05:23:50;10.90;99.90
5962;DHT22;3007;50.770;0.250;2023-12-29T05:26:16;10.80;99.90
5962;DHT22;3007;50.770;0.250;2023-12-29T05:28:43;10.70;99.90
5962;DHT22;3007;50.770;0.250;2023-12-29T05:31:10;10.70;99.90
5962;DHT22;3007;50.770;0.250;2023-12-29T05:33:38;10.60;99.90
5962;DHT22;3007;50.770;0.250;2023-12-29T05:36:06;10.50;99.90
5962;DHT22;3007;50.770;0.250;2023-12-29T05:38:34;10.60;99.90
5962;DHT22;3007;50.770;0.250;2023-12-29T05:41:00;10.60;99.90
5962;DHT22;3007;50.770;0.250;2023-12-29T05:43:29;10.50;99.90
5962;DHT22;3007;50.770;0.250;2023-12-29T05:45:56;10.40;99.90
5962;DHT22;3007;50.770;0.250;2023-12-29T05:48:23;10.40;99.90
5962;DHT22;3007;50.770;0.250;2023-12-29T05:50:51;10.30;99.90
5962;DHT22;3007;50.770;0.250;2023-12-29T05:53:19;10.20;99.90
5962;DHT22;3007;50.770;0.250;2023-12-29T05:55:45;10.30;99.90
5962;DHT22;3007;50.770;0.250;2023-12-29T05:58:12;10.20;99.90
5962;DHT22;3007;50.770;0.250;2023-12-29T06:00:39;10.20;99.90
5962;DHT22;3007;50.770;0.250;2023-12-29T06:03:06;10.10;99.90
5962;DHT22;3007;50.770;0.250;2023-12-29T06:05:33;10.10;99.90
5962;DHT22;3007;50.770;0.250;2023-12-29T06:08:01;10.00;99.90
5962;DHT22;3007;50.770;0.250;2023-12-29T06:10:28;10.10;99.90
5962;DHT22;3007;50.770;0.250;2023-12-29T06:12:55;10.00;99.90
5962;DHT22;3007;50.770;0.250;2023-12-29T06:15:22;10.10;99.90
5962;DHT22;3007;50.770;0.250;2023-12-29T06:17:48;10.20;99.90
5962;DHT22;3007;50.770;0.250;2023-12-29T06:20:15;10.20;99.90
5962;DHT22;3007;50.770;0.250;2023-12-29T06:22:42;10.20;99.90
5962;DHT22;3007;50.770;0.250;2023-12-29T06:25:11;10.20;99.90
5962;DHT22;3007;50.770;0.250;2023-12-29T06:27:39;10.20;99.90
5962;DHT22;3007;50.770;0.250;2023-12-29T06:30:08;10.20;99.90
5962;DHT22;3007;50.770;0.250;2023-12-29T06:32:36;10.20;99.90
5962;DHT22;3007;50.770;0.250;2023-12-29T06:35:04;10.20;99.90
5962;DHT22;3007;50.770;0.250;2023-12-29T06:37:31;10.20;99.90
5962;DHT22;3007;50.770;0.250;2023-12-29T06:39:58;10.20;99.90
5962;DHT22;3007;50.770;0.250;2023-12-29T06:42:26;10.20;99.90
5962;DHT22;3007;50.770;0.250;2023-12-29T06:44:53;10.30;99.90
5962;DHT22;3007;50.770;0.250;2023-12-29T06:47:19;10.30;99.90
5962;DHT22;3007;50.770;0.250;2023-12-29T06:49:46;10.30;99.90
5962;DHT22;3007;50.770;0.250;2023-12-29T06:52:13;10.50;99.90
5962;DHT22;3007;50.770;0.250;2023-12-29T06:54:40;10.40;99.90
5962;DHT22;3007;50.770;0.250;2023-12-29T06:57:07;10.40;99.90
5962;DHT22;3007;50.770;0.250;2023-12-29T06:59:35;10.40;99.90
5962;DHT22;3007;50.770;0.250;2023-12-29T07:02:02;10.50;99.90
5962;DHT22;3007;50.770;0.250;2023-12-29T07:04:29;10.40;99.90
5962;DHT22;3007;50.770;0.250;2023-12-29T07:06:56;10.50;99.90
5962;DHT22;3007;50.770;0.250;2023-12-29T07:09:25;10.60;99.90
5962;DHT22;3007;50.770;0.250;2023-12-29T07:11:52;10.70;99.90
5962;DHT22;3007;50.770;0.250;2023-12-29T07:14:19;10.80;99.90
5962;DHT22;3007;50.770;0.250;2023-12-29T07:16:47;10.80;99.90
5962;DHT22;3007;50.770;0.250;2023-12-29T07:19:14;10.90;99.90
5962;DHT22;3007;50.770;0.250;2023-12-29T07:21:40;10.90;99.90
5962;DHT22;3007;50.770;0.250;2023-12-29T07:24:07;11.00;99.90
5962;DHT22;3007;50.770;0.250;2023-12-29T07:26:35;11.00;99.90
5962;DHT22;3007;50.770;0.250;2023-12-29T07:29:02;11.00;99.90
5962;DHT22;3007;50.770;0.250;2023-12-29T07:31:29;11.30;99.90
5962;DHT22;3007;50.770;0.250;2023-12-29T07:33:59;11.10;99.90
5962;DHT22;3007;50.770;0.250;2023-12-29T07:36:26;11.10;99.90
5962;DHT22;3007;50.770;0.250;2023-12-29T07:38:53;11.20;99.90
5962;DHT22;3007;50.770;0.250;2023-12-29T07:41:20;11.10;99.90
5962;DHT22;3007;50.770;0.250;2023-12-29T07:43:46;11.50;99.90
5962;DHT22;3007;50.770;0.250;2023-12-29T07:46:13;11.20;99.90
5962;DHT22;3007;50.770;0.250;2023-12-29T07:48:49;11.20;99.90
5962;DHT22;3007;50.770;0.250;2023-12-29T07:51:17;11.40;99.90
5962;DHT22;3007;50.770;0.250;2023-12-29T07:53:44;11.40;99.90
5962;DHT22;3007;50.770;0.250;2023-12-29T07:56:11;11.10;99.90
5962;DHT22;3007;50.770;0.250;2023-12-29T07:58:38;11.20;99.90
5962;DHT22;3007;50.770;0.250;2023-12-29T08:01:05;11.20;99.90
5962;DHT22;3007;50.770;0.250;2023-12-29T08:03:32;11.20;99.90
5962;DHT22;3007;50.770;0.250;2023-12-29T08:05:58;11.10;99.90
5962;DHT22;3007;50.770;0.250;2023-12-29T08:08:27;11.10;99.90
5962;DHT22;3007;50.770;0.250;2023-12-29T08:10:53;11.10;99.90
5962;DHT22;3007;50.770;0.250;2023-12-29T08:13:20;11.10;99.90
5962;DHT22;3007;50.770;0.250;2023-12-29T08:15:47;11.00;99.90
5962;DHT22;3007;50.770;0.250;2023-12-29T08:18:14;11.00;99.90
5962;DHT22;3007;50.770;0.250;2023-12-29T08:20:41;11.00;99.90
5962;DHT22;3007;50.770;0.250;2023-12-29T08:23:08;10.90;99.90
5962;DHT22;3007;50.770;0.250;2023-12-29T08:25:37;10.90;99.90
5962;DHT22;3007;50.770;0.250;2023-12-29T08:28:04;10.80;99.90
5962;DHT22;3007;50.770;0.250;2023-12-29T08:30:34;10.80;99.90
5962;DHT22;3007;50.770;0.250;2023-12-29T08:33:02;10.70;99.90
5962;DHT22;3007;50.770;0.250;2023-12-29T08:35:29;10.60;99.90
5962;DHT22;3007;50.770;0.250;2023-12-29T08:37:56;10.70;99.90
5962;DHT22;3007;50.770;0.250;2023-12-29T08:40:23;10.60;99.90
5962;DHT22;3007;50.770;0.250;2023-12-29T08:42:51;11.80;99.90
5962;DHT22;3007;50.770;0.250;2023-12-29T08:45:18;10.70;99.90
5962;DHT22;3007;50.770;0.250;2023-12-29T08:47:45;10.80;99.90
5962;DHT22;3007;50.770;0.250;2023-12-29T08:50:12;10.80;99.90
5962;DHT22;3007;50.770;0.250;2023-12-29T08:52:39;10.80;99.90
5962;DHT22;3007;50.770;0.250;2023-12-29T08:55:07;10.90;99.90
5962;DHT22;3007;50.770;0.250;2023-12-29T08:57:35;10.90;99.90
5962;DHT22;3007;50.770;0.250;2023-12-29T09:00:04;10.90;99.90
5962;DHT22;3007;50.770;0.250;2023-12-29T09:02:32;11.00;99.90
5962;DHT22;3007;50.770;0.250;2023-12-29T09:04:59;11.10;99.90
5962;DHT22;3007;50.770;0.250;2023-12-29T09:07:25;11.10;99.90
5962;DHT22;3007;50.770;0.250;2023-12-29T09:09:53;11.10;99.90
5962;DHT22;3007;50.770;0.250;2023-12-29T09:12:20;11.20;99.90
5962;DHT22;3007;50.770;0.250;2023-12-29T09:14:47;11.20;99.90
5962;DHT22;3007;50.770;0.250;2023-12-29T09:17:15;11.20;99.90
5962;DHT22;3007;50.770;0.250;2023-12-29T09:19:42;11.20;99.90
5962;DHT22;3007;50.770;0.250;2023-12-29T09:22:09;11.20;99.90
5962;DHT22;3007;50.770;0.250;2023-12-29T09:24:35;11.20;99.90
5962;DHT22;3007;50.770;0.250;2023-12-29T09:27:03;11.20;99.90
5962;DHT22;3007;50.770;0.250;2023-12-29T09:29:30;11.20;99.90
5962;DHT22;3007;50.770;0.250;2023-12-29T09:31:57;11.20;99.90
5962;DHT22;3007;50.770;0.250;2023-12-29T09:34:25;11.30;99.90
5962;DHT22;3007;50.770;0.250;2023-12-29T09:36:52;11.30;99.90
5962;DHT22;3007;50.770;0.250;2023-12-29T09:39:18;11.30;99.90
5962;DHT22;3007;50.770;0.250;2023-12-29T09:41:46;11.40;99.90
5962;DHT22;3007;50.770;0.250;2023-12-29T09:44:20;11.40;99.90
5962;DHT22;3007;50.770;0.250;2023-12-29T09:46:50;11.50;99.90
5962;DHT22;3007;50.770;0.250;2023-12-29T09:49:19;11.40;99.90
5962;DHT22;3007;50.770;0.250;2023-12-29T09:51:48;11.40;99.90
5962;DHT22;3007;50.770;0.250;2023-12-29T09:54:16;11.40;99.90
5962;DHT22;3007;50.770;0.250;2023-12-29T09:56:43;10.90;99.90
5962;DHT22;3007;50.770;0.250;2023-12-29T09:59:12;11.40;99.90
5962;DHT22;3007;50.770;0.250;2023-12-29T10:01:45;11.40;99.90
5962;DHT22;3007;50.770;0.250;2023-12-29T10:04:12;11.40;99.90
5962;DHT22;3007;50.770;0.250;2023-12-29T10:06:42;11.40;99.90
5962;DHT22;3007;50.770;0.250;2023-12-29T10:09:12;11.40;99.90
5962;DHT22;3007;50.770;0.250;2023-12-29T10:11:42;11.40;99.90
5962;DHT22;3007;50.770;0.250;2023-12-29T10:14:22;11.40;99.90
5962;DHT22;3007;50.770;0.250;2023-12-29T10:16:53;11.30;99.90
5962;DHT22;3007;50.770;0.250;2023-12-29T10:19:31;11.30;99.90
5962;DHT22;3007;50.770;0.250;2023-12-29T10:22:08;11.30;99.90
5962;DHT22;3007;50.770;0.250;2023-12-29T10:24:39;11.20;99.90
5962;DHT22;3007;50.770;0.250;2023-12-29T10:27:08;11.30;99.90
5962;DHT22;3007;50.770;0.250;2023-12-29T10:29:35;11.30;99.90
5962;DHT22;3007;50.770;0.250;2023-12-29T10:32:03;11.30;99.90
5962;DHT22;3007;50.770;0.250;2023-12-29T10:34:30;11.40;99.90
5962;DHT22;3007;50.770;0.250;2023-12-29T10:36:58;11.50;99.90
5962;DHT22;3007;50.770;0.250;2023-12-29T10:39:25;11.50;99.90
5962;DHT22;3007;50.770;0.250;2023-12-29T10:42:03;11.50;99.90
5962;DHT22;3007;50.770;0.250;2023-12-29T10:44:31;11.60;99.90
5962;DHT22;3007;50.770;0.250;2023-12-29T10:46:58;11.60;99.90
5962;DHT22;3007;50.770;0.250;2023-12-29T10:49:25;11.60;99.90
5962;DHT22;3007;50.770;0.250;2023-12-29T10:51:52;11.60;99.90
5962;DHT22;3007;50.770;0.250;2023-12-29T10:54:20;11.60;99.90
5962;DHT22;3007;50.770;0.250;2023-12-29T10:57:00;11.60;99.90
5962;DHT22;3007;50.770;0.250;2023-12-29T10:59:28;11.60;99.90
5962;DHT22;3007;50.770;0.250;2023-12-29T11:01:56;11.60;99.90
5962;DHT22;3007;50.770;0.250;2023-12-29T11:04:23;11.60;99.90
5962;DHT22;3007;50.770;0.250;2023-12-29T11:06:50;11.60;99.90
5962;DHT22;3007;50.770;0.250;2023-12-29T11:09:27;11.60;99.90
5962;DHT22;3007;50.770;0.250;2023-12-29T11:11:55;11.60;99.90
5962;DHT22;3007;50.770;0.250;2023-12-29T11:14:25;11.60;99.90
5962;DHT22;3007;50.770;0.250;2023-12-29T11:16:55;11.60;99.90
5962;DHT22;3007;50.770;0.250;2023-12-29T11:19:22;11.60;99.90
5962;DHT22;3007;50.770;0.250;2023-12-29T11:21:52;11.60;99.90
5962;DHT22;3007;50.770;0.250;2023-12-29T11:24:19;11.50;99.90
5962;DHT22;3007;50.770;0.250;2023-12-29T11:26:46;11.50;99.90
5962;DHT22;3007;50.770;0.250;2023-12-29T11:29:16;11.50;99.90
5962;DHT22;3007;50.770;0.250;2023-12-29T11:31:46;11.40;99.90
5962;DHT22;3007;50.770;0.250;2023-12-29T11:34:18;11.40;99.90
5962;DHT22;3007;50.770;0.250;2023-12-29T11:36:47;11.40;99.90
5962;DHT22;3007;50.770;0.250;2023-12-29T11:39:20;11.50;99.90
5962;DHT22;3007;50.770;0.250;2023-12-29T11:41:56;11.40;99.90
5962;DHT22;3007;50.770;0.250;2023-12-29T11:44:27;11.40;99.90
5962;DHT22;3007;50.770;0.250;2023-12-29T11:46:57;11.40;99.90
5962;DHT22;3007;50.770;0.250;2023-12-29T11:49:23;11.40;99.90
5962;DHT22;3007;50.770;0.250;2023-12-29T11:51:51;11.40;99.90
5962;DHT22;3007;50.770;0.250;2023-12-29T11:54:25;11.50;99.90
5962;DHT22;3007;50.770;0.250;2023-12-29T11:56:52;11.50;99.90
5962;DHT22;3007;50.770;0.250;2023-12-29T11:59:21;11.60;99.90
5962;DHT22;3007;50.770;0.250;2023-12-29T12:01:49;11.80;99.90
5962;DHT22;3007;50.770;0.250;2023-12-29T12:04:36;11.90;99.90
5962;DHT22;3007;50.770;0.250;2023-12-29T12:07:06;11.90;99.90
5962;DHT22;3007;50.770;0.250;2023-12-29T12:09:33;12.00;99.90
5962;DHT22;3007;50.770;0.250;2023-12-29T12:12:01;12.00;99.90
5962;DHT22;3007;50.770;0.250;2023-12-29T12:14:59;12.10;99.90
5962;DHT22;3007;50.770;0.250;2023-12-29T12:17:29;12.00;99.90
5962;DHT22;3007;50.770;0.250;2023-12-29T12:19:59;12.00;99.90
5962;DHT22;3007;50.770;0.250;2023-12-29T12:22:29;12.00;99.90
5962;DHT22;3007;50.770;0.250;2023-12-29T12:24:58;12.10;99.90
5962;DHT22;3007;50.770;0.250;2023-12-29T12:27:26;12.10;99.90
5962;DHT22;3007;50.770;0.250;2023-12-29T12:29:54;12.20;99.90
5962;DHT22;3007;50.770;0.250;2023-12-29T12:32:26;12.20;99.90
5962;DHT22;3007;50.770;0.250;2023-12-29T12:34:53;12.10;99.90
5962;DHT22;3007;50.770;0.250;2023-12-29T12:37:22;12.10;99.90
5962;DHT22;3007;50.770;0.250;2023-12-29T12:39:49;12.00;99.90
5962;DHT22;3007;50.770;0.250;2023-12-29T12:42:18;12.10;99.90
5962;DHT22;3007;50.770;0.250;2023-12-29T12:44:53;12.00;99.90
5962;DHT22;3007;50.770;0.250;2023-12-29T12:47:26;11.80;99.90
5962;DHT22;3007;50.770;0.250;2023-12-29T12:49:53;11.80;99.90
5962;DHT22;3007;50.770;0.250;2023-12-29T12:52:22;11.70;99.90
5962;DHT22;3007;50.770;0.250;2023-12-29T12:54:49;11.80;99.90
5962;DHT22;3007;50.770;0.250;2023-12-29T12:57:20;11.80;99.90
5962;DHT22;3007;50.770;0.250;2023-12-29T12:59:47;11.90;99.90
5962;DHT22;3007;50.770;0.250;2023-12-29T13:02:15;12.10;99.90
5962;DHT22;3007;50.770;0.250;2023-12-29T13:04:42;12.10;99.90
5962;DHT22;3007;50.770;0.250;2023-12-29T13:07:09;12.10;99.90
5962;DHT22;3007;50.770;0.250;2023-12-29T13:09:38;12.20;99.90
5962;DHT22;3007;50.770;0.250;2023-12-29T13:12:09;12.30;99.90
5962;DHT22;3007;50.770;0.250;2023-12-29T13:14:36;12.20;99.90
5962;DHT22;3007;50.770;0.250;2023-12-29T13:17:07;12.50;99.90
5962;DHT22;3007;50.770;0.250;2023-12-29T13:19:34;12.10;99.90
5962;DHT22;3007;50.770;0.250;2023-12-29T13:22:01;12.30;99.90
5962;DHT22;3007;50.770;0.250;2023-12-29T13:24:29;11.90;99.90
5962;DHT22;3007;50.770;0.250;2023-12-29T13:26:58;11.80;99.90
5962;DHT22;3007;50.770;0.250;2023-12-29T13:29:28;11.80;99.90
5962;DHT22;3007;50.770;0.250;2023-12-29T13:31:59;11.70;99.90
5962;DHT22;3007;50.770;0.250;2023-12-29T13:34:33;11.70;99.90
5962;DHT22;3007;50.770;0.250;2023-12-29T13:37:03;11.60;99.90
5962;DHT22;3007;50.770;0.250;2023-12-29T13:39:37;11.60;99.90
5962;DHT22;3007;50.770;0.250;2023-12-29T13:42:07;11.60;99.90
5962;DHT22;3007;50.770;0.250;2023-12-29T13:44:36;11.50;99.90
5962;DHT22;3007;50.770;0.250;2023-12-29T13:47:05;11.60;99.90
5962;DHT22;3007;50.770;0.250;2023-12-29T13:49:32;11.70;99.90
5962;DHT22;3007;50.770;0.250;2023-12-29T13:52:02;11.60;99.90
5962;DHT22;3007;50.770;0.250;2023-12-29T13:54:29;11.70;99.90
5962;DHT22;3007;50.770;0.250;2023-12-29T13:56:56;11.70;99.90
5962;DHT22;3007;50.770;0.250;2023-12-29T13:59:30;11.90;99.90
5962;DHT22;3007;50.770;0.250;2023-12-29T14:01:58;11.80;99.90
5962;DHT22;3007;50.770;0.250;2023-12-29T14:04:26;11.70;99.90
5962;DHT22;3007;50.770;0.250;2023-12-29T14:06:55;11.70;99.90
5962;DHT22;3007;50.770;0.250;2023-12-29T14:09:25;11.70;99.90
5962;DHT22;3007;50.770;0.250;2023-12-29T14:11:52;11.70;99.90
5962;DHT22;3007;50.770;0.250;2023-12-29T14:14:22;12.50;99.90
5962;DHT22;3007;50.770;0.250;2023-12-29T14:16:51;11.70;99.90
5962;DHT22;3007;50.770;0.250;2023-12-29T14:19:19;11.70;99.90
5962;DHT22;3007;50.770;0.250;2023-12-29T14:21:48;11.60;99.90
5962;DHT22;3007;50.770;0.250;2023-12-29T14:24:16;11.60;99.90
5962;DHT22;3007;50.770;0.250;2023-12-29T14:26:54;11.50;99.90
5962;DHT22;3007;50.770;0.250;2023-12-29T14:29:22;11.40;99.90
5962;DHT22;3007;50.770;0.250;2023-12-29T14:31:50;11.30;99.90
5962;DHT22;3007;50.770;0.250;2023-12-29T14:34:18;11.20;99.90
5962;DHT22;3007;50.770;0.250;2023-12-29T14:36:45;11.20;99.90
5962;DHT22;3007;50.770;0.250;2023-12-29T14:39:12;11.20;99.90
5962;DHT22;3007;50.770;0.250;2023-12-29T14:41:41;11.10;99.90
5962;DHT22;3007;50.770;0.250;2023-12-29T14:44:08;11.00;99.90
5962;DHT22;3007;50.770;0.250;2023-12-29T14:46:35;10.90;99.90
5962;DHT22;3007;50.770;0.250;2023-12-29T14:49:04;10.90;99.90
5962;DHT22;3007;50.770;0.250;2023-12-29T14:51:31;10.80;99.90
5962;DHT22;3007;50.770;0.250;2023-12-29T14:53:58;10.80;99.90
5962;DHT22;3007;50.770;0.250;2023-12-29T14:56:25;10.70;99.90
5962;DHT22;3007;50.770;0.250;2023-12-29T14:58:51;10.70;99.90
5962;DHT22;3007;50.770;0.250;2023-12-29T15:01:18;10.70;99.90
5962;DHT22;3007;50.770;0.250;2023-12-29T15:03:45;10.60;99.90
5962;DHT22;3007;50.770;0.250;2023-12-29T15:06:13;10.60;99.90
5962;DHT22;3007;50.770;0.250;2023-12-29T15:08:40;10.50;99.90
5962;DHT22;3007;50.770;0.250;2023-12-29T15:11:07;10.50;99.90
5962;DHT22;3007;50.770;0.250;2023-12-29T15:13:34;10.40;99.90
5962;DHT22;3007;50.770;0.250;2023-12-29T15:16:02;10.40;99.90
5962;DHT22;3007;50.770;0.250;2023-12-29T15:18:32;10.40;99.90
5962;DHT22;3007;50.770;0.250;2023-12-29T15:20:59;10.30;99.90
5962;DHT22;3007;50.770;0.250;2023-12-29T15:23:28;10.30;99.90
5962;DHT22;3007;50.770;0.250;2023-12-29T15:25:55;10.30;99.90
5962;DHT22;3007;50.770;0.250;2023-12-29T15:28:22;10.70;99.90
5962;DHT22;3007;50.770;0.250;2023-12-29T15:30:49;10.30;99.90
5962;DHT22;3007;50.770;0.250;2023-12-29T15:33:16;10.20;99.90
5962;DHT22;3007;50.770;0.250;2023-12-29T15:35:44;10.30;99.90
5962;DHT22;3007;50.770;0.250;2023-12-29T15:38:11;10.20;99.90
5962;DHT22;3007;50.770;0.250;2023-12-29T15:40:39;10.20;99.90
5962;DHT22;3007;50.770;0.250;2023-12-29T15:43:06;10.20;99.90
5962;DHT22;3007;50.770;0.250;2023-12-29T15:45:34;10.10;99.90
5962;DHT22;3007;50.770;0.250;2023-12-29T15:48:01;10.10;99.90
5962;DHT22;3007;50.770;0.250;2023-12-29T15:50:28;10.10;99.90
5962;DHT22;3007;50.770;0.250;2023-12-29T15:52:54;10.10;99.90
5962;DHT22;3007;50.770;0.250;2023-12-29T15:55:21;10.10;99.90
5962;DHT22;3007;50.770;0.250;2023-12-29T15:57:49;10.10;99.90
5962;DHT22;3007;50.770;0.250;2023-12-29T16:00:17;10.00;99.90
5962;DHT22;3007;50.770;0.250;2023-12-29T16:02:44;10.00;99.90
5962;DHT22;3007;50.770;0.250;2023-12-29T16:05:11;9.90;99.90
5962;DHT22;3007;50.770;0.250;2023-12-29T16:07:38;9.90;99.90